< < Back
Terminal Aerodrome Forecast


Current Version              Previous Versions:   1  2  3  4  5  6  7  8  9  

Terminal Aerodrome Forecast

501
FTUS42 KJAX 252300
TAFSSI
TAF
KSSI 252320Z 2600/2624 VRB02KT P6SM SKC
     FM261500 32005KT P6SM SKC
     FM261900 15005KT P6SM SKC=

Latest METAR

391
SAUS70 KWBC 260000 RRI
MTRSSI
METAR KSSI 252353Z AUTO 00000KT 10SM CLR 17/12 A2999 RMK AO2 SLP156
T01670117 10244 20167 53009


USA.gov is the U.S. government's official web portal to all federal, state and local government web resources and services.